Sunday, June 17, 2018, 10:04 PM EDT
Back to Local

KBID, Block Island, Block Island State Airport

Location: Block Island, RI, United States Lat: 41.167
Local Time: 10:04 PM EDT ( 2:04 GMT) Lon: -71.567
Time Zone: US/Eastern Elev: 108 ft

Show me the last for .
Show Decoded

2018-06-17 20:56 METAR KBID 180056Z AUTO 20011KT 10SM CLR 18/17 A3008 RMK AO2 SLP190 T01830172 =
2018-06-17 19:56 METAR KBID 172356Z AUTO 20010KT 10SM FEW002 19/17 A3009 RMK AO2 SLP193 6////
                 T01890167 10250 20189 53001 =
2018-06-17 19:40 METAR KBID 172340Z AUTO 20011KT 10SM FEW002 20/17 A3009 RMK AO2 =
2018-06-17 18:56 METAR KBID 172256Z AUTO 20010KT 10SM CLR 22/16 A3009 RMK AO2 SLP192 T02170161 =
2018-06-17 17:56 METAR KBID 172156Z AUTO 21011KT 10SM CLR 22/17 A3009 RMK AO2 SLP192 T02220167 =
2018-06-17 16:56 METAR KBID 172056Z AUTO 20012KT 10SM CLR 23/16 A3009 RMK AO2 SLP193 6////
                 T02330161 50003 =
2018-06-17 15:56 METAR KBID 171956Z AUTO 19010KT 10SM CLR 24/15 A3010 RMK AO2 SLP194 T02390150 =
2018-06-17 14:56 METAR KBID 171856Z AUTO 20010KT 10SM CLR 24/15 A3008 RMK AO2 SLP190 T02440150 =
2018-06-17 13:56 METAR KBID 171756Z AUTO 19009KT 10SM CLR 24/17 A3008 RMK AO2 SLP189 T02390167
                 10283 20206 58008 =
2018-06-17 12:56 METAR KBID 171656Z AUTO 19009KT 10SM CLR 25/14 A3009 RMK AO2 SLP193 T02500144 =
2018-06-17 11:56 METAR KBID 171556Z AUTO 26005KT 10SM CLR 28/13 A3011 RMK AO2 SLP199 T02780133 =
2018-06-17 10:56 METAR KBID 171456Z AUTO 29003KT 10SM CLR 27/12 A3011 RMK AO2 SLP197 T02720122
                 53011 =
2018-06-17 09:56 METAR KBID 171356Z AUTO 00000KT 10SM CLR 25/15 A3009 RMK AO2 SLP192 T02500150 =
2018-06-17 08:56 METAR KBID 171256Z AUTO 31003KT 10SM CLR 23/14 A3008 RMK AO2 SLP189 T02330139 =
2018-06-17 07:56 METAR KBID 171156Z AUTO 28006KT 10SM CLR 21/13 A3007 RMK AO2 SLP187 7////
                 T02060128 10206 20172 53010 =
2018-06-17 06:56 METAR KBID 171056Z AUTO 28008KT 10SM CLR 19/13 A3006 RMK AO2 SLP182 T01940133 =
2018-06-17 05:56 METAR KBID 170956Z AUTO 28007KT 10SM CLR 18/13 A3005 RMK AO2 SLP178 T01780128 =
2018-06-17 04:56 METAR KBID 170856Z AUTO 28008KT 10SM CLR 17/12 A3004 RMK AO2 SLP177 T01720122
                 53004 =
2018-06-17 03:56 METAR KBID 170756Z AUTO 27009KT 10SM CLR 17/12 A3004 RMK AO2 SLP175 T01720122 =
2018-06-17 02:56 METAR KBID 170656Z AUTO 26008KT 10SM CLR 17/13 A3003 RMK AO2 SLP173 T01720128 =
2018-06-17 01:56 METAR KBID 170556Z AUTO 27008KT 10SM CLR 18/13 A3003 RMK AO2 SLP173 T01780128
                 10200 20156 50002 =
2018-06-17 00:56 METAR KBID 170456Z AUTO 27011KT 10SM CLR 18/13 A3004 RMK AO2 SLP176 T01780133 =
2018-06-16 23:56 METAR KBID 170356Z AUTO 27008KT 10SM CLR 16/14 A3005 RMK AO2 SLP177 T01610139
                 402560133 =
2018-06-16 22:56 METAR KBID 170256Z AUTO 24012KT 10SM CLR 17/14 A3003 RMK AO2 SLP171 T01670144
                 51016 =

Support USWX by starting your Amazon purchase here.